Clifford Maersk — OYRO2 — position and weather

sailwx.info

Track history (hours):
 
Tides and Currents Weather Stations Pressure Air Temp Water Temp Dewpoint Dewpoint Depression Visibility Wind Speed Wind Dir Waves Ship Positions

Clifford Maersk

Last reported at 2014-Oct-29 10:32 UTC. Time now 2014-Oct-31 23:40 UTC.
Position N 36°25' E 014°32'.

Type: Ship (hazmat cat A). MMSI: 219840000.

Date/timePositionNaut miles runAvg speedWind from/ knotsBaromVisibWave heightAir tempDewpointWater temp
2014-Oct-29 10:32N 36°25' E 014°32'5517.1
2014-Oct-29 07:20N 36°44' E 013°27'60516.8
2014-Oct-27 19:16N 36°40' E 000°52'1216.8
2014-Oct-27 18:33N 36°38' E 000°38'1716.8
2014-Oct-27 17:33N 36°36' E 000°17'1716.6
2014-Oct-27 16:33N 36°33' W 000°03'1916.6
2014-Oct-27 15:24N 36°30' W 000°27'22917.4
2014-Oct-27 02:14N 35°59' W 005°08'1217.5
2014-Oct-27 01:34N 35°58' W 005°23'16416.4
2014-Oct-26 15:32N 36°25' W 008°44'7714.9
2014-Oct-26 10:22N 37°26' W 009°42'1417.1
2014-Oct-26 09:33N 37°40' W 009°47'1716.9
2014-Oct-26 08:33N 37°56' W 009°52'2016.9
2014-Oct-26 07:21N 38°16' W 009°58'1316.9
2014-Oct-26 06:33N 38°29' W 010°02'2416.4
2014-Oct-26 05:05N 38°53' W 010°06'1517.0
2014-Oct-26 04:13N 39°08' W 010°07'2816.9
2014-Oct-26 02:33N 39°36' W 010°07'28716.9
2014-Oct-25 09:32N 44°21' W 009°18'41316.4
2014-Oct-24 08:22N 49°52' W 003°14'1514.5
2014-Oct-24 07:22N 49°58' W 002°54'1314.1
2014-Oct-24 06:24N 50°02' W 002°34'9917.0
2014-Oct-24 00:34N 50°30' W 000°04'1615.9
2014-Oct-23 23:34N 50°34' E 000°20'1514.8
2014-Oct-23 22:34N 50°41' E 000°41'1414.5
2014-Oct-23 21:34N 50°48' E 000°60'1514.8
2014-Oct-23 20:34N 50°57' E 001°20'1717.3
2014-Oct-23 19:34N 51°09' E 001°39'1817.6
2014-Oct-23 18:33N 51°23' E 001°56'1515.0
2014-Oct-23 17:34N 51°21' E 002°20'1514.6
2014-Oct-23 16:33N 51°24' E 002°43'1110.5
2014-Oct-23 15:33N 51°25' E 002°60'8 8.1
2014-Oct-23 14:33N 51°21' E 003°11'0 0.0
2014-Oct-23 13:32N 51°21' E 003°11'0 0.0
2014-Oct-23 12:33N 51°21' E 003°11'0 0.0
2014-Oct-23 11:33N 51°21' E 003°11'0 0.0
2014-Oct-23 10:33N 51°21' E 003°11'0 0.0
2014-Oct-23 09:33N 51°21' E 003°11'0 0.0
2014-Oct-23 08:18N 51°21' E 003°11'0 0.0
2014-Oct-23 07:29N 51°21' E 003°11'0 0.0
2014-Oct-23 06:33N 51°21' E 003°11'0 0.0
2014-Oct-23 05:30N 51°21' E 003°11'0 0.0
2014-Oct-23 04:30N 51°21' E 003°11'0 0.0
2014-Oct-23 03:27N 51°21' E 003°11'1 0.6
2014-Oct-23 02:33N 51°21' E 003°12'1312.9
2014-Oct-23 01:33N 51°25' E 002°52'6 6.1
2014-Oct-23 00:33N 51°26' E 002°42'1414.0
2014-Oct-22 23:34N 51°39' E 002°53'11218.3
2014-Oct-22 17:26N 53°15' E 004°28'1517.0
2014-Oct-22 16:34N 53°28' E 004°40'1717.2
2014-Oct-22 15:34N 53°35' E 005°07'1817.7
2014-Oct-22 14:34N 53°41' E 005°35'1818.0
2014-Oct-22 13:33N 53°47' E 006°04'2016.9
2014-Oct-22 12:24N 53°52' E 006°36'4013.4
2014-Oct-22 09:23N 53°55' E 007°44'910.7
2014-Oct-22 08:33N 53°49' E 007°56'10 9.9
2014-Oct-22 07:33N 53°41' E 008°05'6 6.1
2014-Oct-22 06:33N 53°35' E 008°10'0 0.2
2014-Oct-22 05:28N 53°35' E 008°09'0 0.0
2014-Oct-22 04:19N 53°35' E 008°09'0 0.0
2014-Oct-22 03:13N 53°35' E 008°09'0 0.0
2014-Oct-22 02:31N 53°35' E 008°09'0 0.0
2014-Oct-22 01:28N 53°35' E 008°09'0 0.0
2014-Oct-22 00:31N 53°35' E 008°09'0 0.0
2014-Oct-21 23:31N 53°35' E 008°09'0 0.0
2014-Oct-21 22:31N 53°35' E 008°09'0 0.0
2014-Oct-21 21:31N 53°35' E 008°09'0 0.0
2014-Oct-21 20:31N 53°35' E 008°09'0 0.0
2014-Oct-21 19:31N 53°35' E 008°09'0 0.0
2014-Oct-21 18:31N 53°35' E 008°09'0 0.0
2014-Oct-21 17:31N 53°35' E 008°09'0 0.0
2014-Oct-21 16:31N 53°35' E 008°09'0 0.0
2014-Oct-21 15:33N 53°35' E 008°09'1 1.1
2014-Oct-21 14:33N 53°37' E 008°09'9 8.8
2014-Oct-21 13:33N 53°45' E 008°03'1212.1
2014-Oct-21 12:33N 53°52' E 007°47'1414.1
2014-Oct-21 11:33N 53°47' E 008°09'1515.0
2014-Oct-21 10:33N 53°37' E 008°28'2 2.1
2014-Oct-21 09:33N 53°36' E 008°31'0 0.0
2014-Oct-21 08:33N 53°36' E 008°31'0 0.0
2014-Oct-21 07:33N 53°36' E 008°31'0 0.0
2014-Oct-21 06:33N 53°36' E 008°31'0 0.0
2014-Oct-21 05:33N 53°36' E 008°31'0 0.0
2014-Oct-21 04:33N 53°36' E 008°31'0 0.0
2014-Oct-21 03:33N 53°36' E 008°31'0 0.0
2014-Oct-21 02:33N 53°36' E 008°31'0 0.0
2014-Oct-21 01:33N 53°36' E 008°31'0 0.0
2014-Oct-21 00:33N 53°36' E 008°31'0 0.0
2014-Oct-20 23:33N 53°36' E 008°31'0 0.0
2014-Oct-20 22:33N 53°36' E 008°31'0 0.0
2014-Oct-20 21:33N 53°36' E 008°31'0 0.0
2014-Oct-20 20:33N 53°36' E 008°31'0 0.0
2014-Oct-20 19:30N 53°36' E 008°31'0 0.0
2014-Oct-20 18:33N 53°36' E 008°31'0 0.0
2014-Oct-20 17:33N 53°36' E 008°31'0 0.0
2014-Oct-20 16:33N 53°36' E 008°31'0 0.0
2014-Oct-20 15:33N 53°36' E 008°31'0 0.0
2014-Oct-20 14:33N 53°36' E 008°31'0 0.0
2014-Oct-20 13:33N 53°36' E 008°31'0 0.0
2014-Oct-20 12:33N 53°36' E 008°31'0 0.0
2014-Oct-20 11:33N 53°36' E 008°31'0 0.0
2014-Oct-20 10:33N 53°36' E 008°31'0 0.0
2014-Oct-20 09:33N 53°36' E 008°31'0 0.0
2014-Oct-20 08:33N 53°36' E 008°31'0 0.0
2014-Oct-20 07:33N 53°36' E 008°31'0 0.0
2014-Oct-20 06:33N 53°36' E 008°31'0 0.5
2014-Oct-20 05:33N 53°36' E 008°31'1212.4
2014-Oct-20 04:33N 53°44' E 008°15'1414.1
2014-Oct-20 03:33N 53°52' E 007°55'7 7.2
2014-Oct-20 02:33N 53°52' E 007°43'1 1.3
2014-Oct-20 01:33N 53°53' E 007°41'2 2.3
2014-Oct-20 00:32N 53°55' E 007°41'5 4.9
2014-Oct-19 23:33N 53°54' E 007°33'42 8.3
2014-Oct-19 18:33N 53°46' E 006°24'9 9.1
2014-Oct-19 17:33N 53°43' E 006°10'9 9.3
2014-Oct-19 16:33N 53°40' E 005°55'1111.1
2014-Oct-19 15:33N 53°37' E 005°37'1211.5
2014-Oct-19 14:33N 53°33' E 005°18'1212.0
2014-Oct-19 13:33N 53°29' E 004°60'1211.7
2014-Oct-19 12:33N 53°23' E 004°43'1111.2
2014-Oct-19 11:33N 53°14' E 004°33'  
Track history (hours):
 
Tides and Currents Weather Stations Pressure Air Temp Water Temp Dewpoint Dewpoint Depression Visibility Wind Speed Wind Dir Waves Ship Positions

Clifford Maersk

Last reported at 2014-Oct-29 10:32 UTC. Time now 2014-Oct-31 23:40 UTC.
Position N 36°25' E 014°32'.

Type: Ship (hazmat cat A). MMSI: 219840000.

Date/timePositionNaut miles runAvg speedWind from/ knotsBaromVisibWave heightAir tempDewpointWater temp
2014-Oct-29 10:32N 36°25' E 014°32'5517.1
2014-Oct-29 07:20N 36°44' E 013°27'60516.8
2014-Oct-27 19:16N 36°40' E 000°52'1216.8
2014-Oct-27 18:33N 36°38' E 000°38'1716.8
2014-Oct-27 17:33N 36°36' E 000°17'1716.6
2014-Oct-27 16:33N 36°33' W 000°03'1916.6
2014-Oct-27 15:24N 36°30' W 000°27'22917.4
2014-Oct-27 02:14N 35°59' W 005°08'1217.5
2014-Oct-27 01:34N 35°58' W 005°23'16416.4
2014-Oct-26 15:32N 36°25' W 008°44'7714.9
2014-Oct-26 10:22N 37°26' W 009°42'1417.1
2014-Oct-26 09:33N 37°40' W 009°47'1716.9
2014-Oct-26 08:33N 37°56' W 009°52'2016.9
2014-Oct-26 07:21N 38°16' W 009°58'1316.9
2014-Oct-26 06:33N 38°29' W 010°02'2416.4
2014-Oct-26 05:05N 38°53' W 010°06'1517.0
2014-Oct-26 04:13N 39°08' W 010°07'2816.9
2014-Oct-26 02:33N 39°36' W 010°07'28716.9
2014-Oct-25 09:32N 44°21' W 009°18'41316.4
2014-Oct-24 08:22N 49°52' W 003°14'1514.5
2014-Oct-24 07:22N 49°58' W 002°54'1314.1
2014-Oct-24 06:24N 50°02' W 002°34'9917.0
2014-Oct-24 00:34N 50°30' W 000°04'1615.9
2014-Oct-23 23:34N 50°34' E 000°20'1514.8
2014-Oct-23 22:34N 50°41' E 000°41'1414.5
2014-Oct-23 21:34N 50°48' E 000°60'1514.8
2014-Oct-23 20:34N 50°57' E 001°20'1717.3
2014-Oct-23 19:34N 51°09' E 001°39'1817.6
2014-Oct-23 18:33N 51°23' E 001°56'1515.0
2014-Oct-23 17:34N 51°21' E 002°20'1514.6
2014-Oct-23 16:33N 51°24' E 002°43'1110.5
2014-Oct-23 15:33N 51°25' E 002°60'8 8.1
2014-Oct-23 14:33N 51°21' E 003°11'0 0.0
2014-Oct-23 13:32N 51°21' E 003°11'0 0.0
2014-Oct-23 12:33N 51°21' E 003°11'0 0.0
2014-Oct-23 11:33N 51°21' E 003°11'0 0.0
2014-Oct-23 10:33N 51°21' E 003°11'0 0.0
2014-Oct-23 09:33N 51°21' E 003°11'0 0.0
2014-Oct-23 08:18N 51°21' E 003°11'0 0.0
2014-Oct-23 07:29N 51°21' E 003°11'0 0.0
2014-Oct-23 06:33N 51°21' E 003°11'0 0.0
2014-Oct-23 05:30N 51°21' E 003°11'0 0.0
2014-Oct-23 04:30N 51°21' E 003°11'0 0.0
2014-Oct-23 03:27N 51°21' E 003°11'1 0.6
2014-Oct-23 02:33N 51°21' E 003°12'1312.9
2014-Oct-23 01:33N 51°25' E 002°52'6 6.1
2014-Oct-23 00:33N 51°26' E 002°42'1414.0
2014-Oct-22 23:34N 51°39' E 002°53'11218.3
2014-Oct-22 17:26N 53°15' E 004°28'1517.0
2014-Oct-22 16:34N 53°28' E 004°40'1717.2
2014-Oct-22 15:34N 53°35' E 005°07'1817.7
2014-Oct-22 14:34N 53°41' E 005°35'1818.0
2014-Oct-22 13:33N 53°47' E 006°04'2016.9
2014-Oct-22 12:24N 53°52' E 006°36'4013.4
2014-Oct-22 09:23N 53°55' E 007°44'910.7
2014-Oct-22 08:33N 53°49' E 007°56'10 9.9
2014-Oct-22 07:33N 53°41' E 008°05'6 6.1
2014-Oct-22 06:33N 53°35' E 008°10'0 0.2
2014-Oct-22 05:28N 53°35' E 008°09'0 0.0
2014-Oct-22 04:19N 53°35' E 008°09'0 0.0
2014-Oct-22 03:13N 53°35' E 008°09'0 0.0
2014-Oct-22 02:31N 53°35' E 008°09'0 0.0
2014-Oct-22 01:28N 53°35' E 008°09'0 0.0
2014-Oct-22 00:31N 53°35' E 008°09'0 0.0
2014-Oct-21 23:31N 53°35' E 008°09'0 0.0
2014-Oct-21 22:31N 53°35' E 008°09'0 0.0
2014-Oct-21 21:31N 53°35' E 008°09'0 0.0
2014-Oct-21 20:31N 53°35' E 008°09'0 0.0
2014-Oct-21 19:31N 53°35' E 008°09'0 0.0
2014-Oct-21 18:31N 53°35' E 008°09'0 0.0
2014-Oct-21 17:31N 53°35' E 008°09'0 0.0
2014-Oct-21 16:31N 53°35' E 008°09'0 0.0
2014-Oct-21 15:33N 53°35' E 008°09'1 1.1
2014-Oct-21 14:33N 53°37' E 008°09'9 8.8
2014-Oct-21 13:33N 53°45' E 008°03'1212.1
2014-Oct-21 12:33N 53°52' E 007°47'1414.1
2014-Oct-21 11:33N 53°47' E 008°09'1515.0
2014-Oct-21 10:33N 53°37' E 008°28'2 2.1
2014-Oct-21 09:33N 53°36' E 008°31'0 0.0
2014-Oct-21 08:33N 53°36' E 008°31'0 0.0
2014-Oct-21 07:33N 53°36' E 008°31'0 0.0
2014-Oct-21 06:33N 53°36' E 008°31'0 0.0
2014-Oct-21 05:33N 53°36' E 008°31'0 0.0
2014-Oct-21 04:33N 53°36' E 008°31'0 0.0
2014-Oct-21 03:33N 53°36' E 008°31'0 0.0
2014-Oct-21 02:33N 53°36' E 008°31'0 0.0
2014-Oct-21 01:33N 53°36' E 008°31'0 0.0
2014-Oct-21 00:33N 53°36' E 008°31'0 0.0
2014-Oct-20 23:33N 53°36' E 008°31'0 0.0
2014-Oct-20 22:33N 53°36' E 008°31'0 0.0
2014-Oct-20 21:33N 53°36' E 008°31'0 0.0
2014-Oct-20 20:33N 53°36' E 008°31'0 0.0
2014-Oct-20 19:30N 53°36' E 008°31'0 0.0
2014-Oct-20 18:33N 53°36' E 008°31'0 0.0
2014-Oct-20 17:33N 53°36' E 008°31'0 0.0
2014-Oct-20 16:33N 53°36' E 008°31'0 0.0
2014-Oct-20 15:33N 53°36' E 008°31'0 0.0
2014-Oct-20 14:33N 53°36' E 008°31'0 0.0
2014-Oct-20 13:33N 53°36' E 008°31'0 0.0
2014-Oct-20 12:33N 53°36' E 008°31'0 0.0
2014-Oct-20 11:33N 53°36' E 008°31'0 0.0
2014-Oct-20 10:33N 53°36' E 008°31'0 0.0
2014-Oct-20 09:33N 53°36' E 008°31'0 0.0
2014-Oct-20 08:33N 53°36' E 008°31'0 0.0
2014-Oct-20 07:33N 53°36' E 008°31'0 0.0
2014-Oct-20 06:33N 53°36' E 008°31'0 0.5
2014-Oct-20 05:33N 53°36' E 008°31'1212.4
2014-Oct-20 04:33N 53°44' E 008°15'1414.1
2014-Oct-20 03:33N 53°52' E 007°55'7 7.2
2014-Oct-20 02:33N 53°52' E 007°43'1 1.3
2014-Oct-20 01:33N 53°53' E 007°41'2 2.3
2014-Oct-20 00:32N 53°55' E 007°41'5 4.9
2014-Oct-19 23:33N 53°54' E 007°33'42 8.3
2014-Oct-19 18:33N 53°46' E 006°24'9 9.1
2014-Oct-19 17:33N 53°43' E 006°10'9 9.3
2014-Oct-19 16:33N 53°40' E 005°55'1111.1
2014-Oct-19 15:33N 53°37' E 005°37'1211.5
2014-Oct-19 14:33N 53°33' E 005°18'1212.0
2014-Oct-19 13:33N 53°29' E 004°60'1211.7
2014-Oct-19 12:33N 53°23' E 004°43'1111.2
2014-Oct-19 11:33N 53°14' E 004°33'  

Dump ship's entire track history